sensor_id;sensor_type;location;lat;lon;timestamp;P1;durP1;ratioP1;P2;durP2;ratioP2
21519;SDS011;10921;53.614;9.882;2024-02-21T00:01:18;73.43;;;40.55;;
21519;SDS011;10921;53.614;9.882;2024-02-21T00:03:46;79.47;;;42.90;;
21519;SDS011;10921;53.614;9.882;2024-02-21T00:06:13;81.57;;;41.53;;
21519;SDS011;10921;53.614;9.882;2024-02-21T00:08:39;83.00;;;40.80;;
21519;SDS011;10921;53.614;9.882;2024-02-21T00:11:06;78.20;;;42.05;;
21519;SDS011;10921;53.614;9.882;2024-02-21T00:13:33;82.57;;;41.92;;
21519;SDS011;10921;53.614;9.882;2024-02-21T00:16:00;77.45;;;41.72;;
21519;SDS011;10921;53.614;9.882;2024-02-21T00:18:27;73.07;;;41.42;;
21519;SDS011;10921;53.614;9.882;2024-02-21T00:20:56;84.68;;;43.88;;
21519;SDS011;10921;53.614;9.882;2024-02-21T00:23:22;82.72;;;43.78;;
21519;SDS011;10921;53.614;9.882;2024-02-21T00:25:49;83.65;;;45.33;;
21519;SDS011;10921;53.614;9.882;2024-02-21T00:28:16;87.45;;;44.28;;
21519;SDS011;10921;53.614;9.882;2024-02-21T00:30:43;81.65;;;42.97;;
21519;SDS011;10921;53.614;9.882;2024-02-21T00:33:10;81.32;;;43.60;;
21519;SDS011;10921;53.614;9.882;2024-02-21T00:35:37;83.25;;;43.17;;
21519;SDS011;10921;53.614;9.882;2024-02-21T00:38:03;86.05;;;45.35;;
21519;SDS011;10921;53.614;9.882;2024-02-21T00:40:30;75.20;;;44.35;;
21519;SDS011;10921;53.614;9.882;2024-02-21T00:42:57;87.97;;;46.65;;
21519;SDS011;10921;53.614;9.882;2024-02-21T00:45:23;84.80;;;44.80;;
21519;SDS011;10921;53.614;9.882;2024-02-21T00:47:50;81.88;;;43.42;;
21519;SDS011;10921;53.614;9.882;2024-02-21T00:50:16;83.03;;;43.35;;
21519;SDS011;10921;53.614;9.882;2024-02-21T00:52:43;84.10;;;45.25;;
21519;SDS011;10921;53.614;9.882;2024-02-21T00:55:10;90.70;;;45.33;;
21519;SDS011;10921;53.614;9.882;2024-02-21T00:57:37;85.45;;;44.50;;
21519;SDS011;10921;53.614;9.882;2024-02-21T01:00:04;83.00;;;44.40;;
21519;SDS011;10921;53.614;9.882;2024-02-21T01:02:31;89.10;;;44.33;;
21519;SDS011;10921;53.614;9.882;2024-02-21T01:04:58;82.93;;;45.10;;
21519;SDS011;10921;53.614;9.882;2024-02-21T01:07:25;82.30;;;43.80;;
21519;SDS011;10921;53.614;9.882;2024-02-21T01:09:51;86.97;;;43.65;;
21519;SDS011;10921;53.614;9.882;2024-02-21T01:12:19;80.78;;;42.08;;
21519;SDS011;10921;53.614;9.882;2024-02-21T01:14:45;74.90;;;43.10;;
21519;SDS011;10921;53.614;9.882;2024-02-21T01:17:12;88.28;;;42.67;;
21519;SDS011;10921;53.614;9.882;2024-02-21T01:19:39;76.95;;;40.63;;
21519;SDS011;10921;53.614;9.882;2024-02-21T01:22:05;80.28;;;42.17;;
21519;SDS011;10921;53.614;9.882;2024-02-21T01:24:32;78.57;;;43.00;;
21519;SDS011;10921;53.614;9.882;2024-02-21T01:26:59;84.25;;;42.88;;
21519;SDS011;10921;53.614;9.882;2024-02-21T01:29:25;69.43;;;41.55;;
21519;SDS011;10921;53.614;9.882;2024-02-21T01:31:52;71.43;;;42.85;;
21519;SDS011;10921;53.614;9.882;2024-02-21T01:34:18;86.00;;;43.25;;
21519;SDS011;10921;53.614;9.882;2024-02-21T01:36:45;89.57;;;44.63;;
21519;SDS011;10921;53.614;9.882;2024-02-21T01:39:12;82.60;;;45.25;;
21519;SDS011;10921;53.614;9.882;2024-02-21T01:41:38;82.85;;;49.05;;
21519;SDS011;10921;53.614;9.882;2024-02-21T01:44:05;84.97;;;51.63;;
21519;SDS011;10921;53.614;9.882;2024-02-21T01:46:31;80.18;;;48.75;;
21519;SDS011;10921;53.614;9.882;2024-02-21T01:48:58;77.40;;;49.45;;
21519;SDS011;10921;53.614;9.882;2024-02-21T01:51:25;83.65;;;52.65;;
21519;SDS011;10921;53.614;9.882;2024-02-21T01:53:53;86.07;;;54.67;;
21519;SDS011;10921;53.614;9.882;2024-02-21T01:56:21;91.93;;;54.33;;
21519;SDS011;10921;53.614;9.882;2024-02-21T01:58:48;87.75;;;55.80;;
21519;SDS011;10921;53.614;9.882;2024-02-21T02:01:15;78.85;;;54.65;;
21519;SDS011;10921;53.614;9.882;2024-02-21T02:03:47;86.05;;;54.70;;
21519;SDS011;10921;53.614;9.882;2024-02-21T02:06:14;87.03;;;57.17;;
21519;SDS011;10921;53.614;9.882;2024-02-21T02:08:41;78.75;;;53.63;;
21519;SDS011;10921;53.614;9.882;2024-02-21T02:11:08;91.85;;;56.10;;
21519;SDS011;10921;53.614;9.882;2024-02-21T02:13:36;92.82;;;57.63;;
21519;SDS011;10921;53.614;9.882;2024-02-21T02:16:02;88.70;;;56.75;;
21519;SDS011;10921;53.614;9.882;2024-02-21T02:18:30;96.45;;;59.20;;
21519;SDS011;10921;53.614;9.882;2024-02-21T02:20:56;90.57;;;60.33;;
21519;SDS011;10921;53.614;9.882;2024-02-21T02:23:29;106.28;;;63.78;;
21519;SDS011;10921;53.614;9.882;2024-02-21T02:25:57;97.72;;;61.88;;
21519;SDS011;10921;53.614;9.882;2024-02-21T02:28:25;101.13;;;64.00;;
21519;SDS011;10921;53.614;9.882;2024-02-21T02:30:51;103.72;;;62.92;;
21519;SDS011;10921;53.614;9.882;2024-02-21T02:33:18;98.90;;;66.00;;
21519;SDS011;10921;53.614;9.882;2024-02-21T02:35:45;109.80;;;66.07;;
21519;SDS011;10921;53.614;9.882;2024-02-21T02:38:12;97.55;;;62.72;;
21519;SDS011;10921;53.614;9.882;2024-02-21T02:40:40;101.68;;;64.15;;
21519;SDS011;10921;53.614;9.882;2024-02-21T02:43:08;108.43;;;65.95;;
21519;SDS011;10921;53.614;9.882;2024-02-21T02:45:35;105.00;;;63.85;;
21519;SDS011;10921;53.614;9.882;2024-02-21T02:48:02;102.60;;;64.32;;
21519;SDS011;10921;53.614;9.882;2024-02-21T02:50:29;101.85;;;65.60;;
21519;SDS011;10921;53.614;9.882;2024-02-21T02:52:56;109.60;;;66.05;;
21519;SDS011;10921;53.614;9.882;2024-02-21T02:55:22;106.32;;;67.78;;
21519;SDS011;10921;53.614;9.882;2024-02-21T02:57:49;97.03;;;65.50;;
21519;SDS011;10921;53.614;9.882;2024-02-21T03:00:16;107.15;;;67.57;;
21519;SDS011;10921;53.614;9.882;2024-02-21T03:02:43;111.35;;;68.25;;
21519;SDS011;10921;53.614;9.882;2024-02-21T03:05:16;98.83;;;63.03;;
21519;SDS011;10921;53.614;9.882;2024-02-21T03:07:45;103.68;;;61.47;;
21519;SDS011;10921;53.614;9.882;2024-02-21T03:10:12;102.25;;;61.72;;
21519;SDS011;10921;53.614;9.882;2024-02-21T03:12:40;101.28;;;60.58;;
21519;SDS011;10921;53.614;9.882;2024-02-21T03:15:06;103.68;;;60.35;;
21519;SDS011;10921;53.614;9.882;2024-02-21T03:17:33;88.15;;;57.97;;
21519;SDS011;10921;53.614;9.882;2024-02-21T03:20:03;94.53;;;58.22;;
21519;SDS011;10921;53.614;9.882;2024-02-21T03:22:39;91.65;;;55.75;;
21519;SDS011;10921;53.614;9.882;2024-02-21T03:25:06;93.55;;;56.60;;
21519;SDS011;10921;53.614;9.882;2024-02-21T03:27:34;90.78;;;55.13;;
21519;SDS011;10921;53.614;9.882;2024-02-21T03:30:00;99.45;;;54.90;;
21519;SDS011;10921;53.614;9.882;2024-02-21T03:32:27;93.32;;;53.25;;
21519;SDS011;10921;53.614;9.882;2024-02-21T03:34:55;88.03;;;52.50;;
21519;SDS011;10921;53.614;9.882;2024-02-21T03:37:21;79.57;;;50.03;;
21519;SDS011;10921;53.614;9.882;2024-02-21T03:39:48;85.18;;;49.83;;
21519;SDS011;10921;53.614;9.882;2024-02-21T03:42:15;85.63;;;49.38;;
21519;SDS011;10921;53.614;9.882;2024-02-21T03:44:41;80.22;;;46.70;;
21519;SDS011;10921;53.614;9.882;2024-02-21T03:47:11;85.97;;;49.40;;
21519;SDS011;10921;53.614;9.882;2024-02-21T03:49:38;79.47;;;47.92;;
21519;SDS011;10921;53.614;9.882;2024-02-21T03:52:05;85.07;;;48.50;;
21519;SDS011;10921;53.614;9.882;2024-02-21T03:54:32;82.47;;;47.58;;
21519;SDS011;10921;53.614;9.882;2024-02-21T03:56:58;75.72;;;46.90;;
21519;SDS011;10921;53.614;9.882;2024-02-21T03:59:25;79.57;;;49.65;;
21519;SDS011;10921;53.614;9.882;2024-02-21T04:01:52;87.55;;;50.22;;
21519;SDS011;10921;53.614;9.882;2024-02-21T04:04:19;79.28;;;51.78;;
21519;SDS011;10921;53.614;9.882;2024-02-21T04:06:49;84.25;;;52.83;;
21519;SDS011;10921;53.614;9.882;2024-02-21T04:09:17;76.45;;;52.70;;
21519;SDS011;10921;53.614;9.882;2024-02-21T04:11:43;85.75;;;53.08;;
21519;SDS011;10921;53.614;9.882;2024-02-21T04:14:11;78.15;;;52.83;;
21519;SDS011;10921;53.614;9.882;2024-02-21T04:16:38;78.85;;;54.08;;
21519;SDS011;10921;53.614;9.882;2024-02-21T04:19:05;81.60;;;54.28;;
21519;SDS011;10921;53.614;9.882;2024-02-21T04:21:32;85.68;;;55.85;;
21519;SDS011;10921;53.614;9.882;2024-02-21T04:23:58;84.80;;;55.35;;
21519;SDS011;10921;53.614;9.882;2024-02-21T04:26:25;74.43;;;54.45;;
21519;SDS011;10921;53.614;9.882;2024-02-21T04:28:52;77.53;;;54.55;;
21519;SDS011;10921;53.614;9.882;2024-02-21T04:31:19;76.68;;;55.00;;
21519;SDS011;10921;53.614;9.882;2024-02-21T04:33:45;84.30;;;57.42;;
21519;SDS011;10921;53.614;9.882;2024-02-21T04:36:12;76.03;;;53.65;;
21519;SDS011;10921;53.614;9.882;2024-02-21T04:38:39;83.32;;;55.08;;
21519;SDS011;10921;53.614;9.882;2024-02-21T04:41:07;76.65;;;54.38;;
21519;SDS011;10921;53.614;9.882;2024-02-21T04:43:34;78.30;;;53.17;;
21519;SDS011;10921;53.614;9.882;2024-02-21T04:46:01;74.07;;;54.00;;
21519;SDS011;10921;53.614;9.882;2024-02-21T04:48:28;71.07;;;53.08;;
21519;SDS011;10921;53.614;9.882;2024-02-21T04:50:54;71.28;;;54.22;;
21519;SDS011;10921;53.614;9.882;2024-02-21T04:53:21;72.75;;;53.08;;
21519;SDS011;10921;53.614;9.882;2024-02-21T04:55:47;70.90;;;52.40;;
21519;SDS011;10921;53.614;9.882;2024-02-21T04:58:14;68.70;;;52.25;;
21519;SDS011;10921;53.614;9.882;2024-02-21T05:00:41;70.45;;;51.75;;
21519;SDS011;10921;53.614;9.882;2024-02-21T05:03:07;65.55;;;51.70;;
21519;SDS011;10921;53.614;9.882;2024-02-21T05:05:34;68.90;;;52.60;;
21519;SDS011;10921;53.614;9.882;2024-02-21T05:08:02;70.10;;;51.80;;
21519;SDS011;10921;53.614;9.882;2024-02-21T05:10:29;65.45;;;50.33;;
21519;SDS011;10921;53.614;9.882;2024-02-21T05:12:57;63.22;;;50.20;;
21519;SDS011;10921;53.614;9.882;2024-02-21T05:15:24;63.72;;;50.92;;
21519;SDS011;10921;53.614;9.882;2024-02-21T05:17:51;63.95;;;49.25;;
21519;SDS011;10921;53.614;9.882;2024-02-21T05:20:18;60.25;;;49.00;;
21519;SDS011;10921;53.614;9.882;2024-02-21T05:22:44;62.05;;;50.13;;
21519;SDS011;10921;53.614;9.882;2024-02-21T05:25:11;62.20;;;48.92;;
21519;SDS011;10921;53.614;9.882;2024-02-21T05:27:37;63.40;;;49.00;;
21519;SDS011;10921;53.614;9.882;2024-02-21T05:30:05;53.15;;;45.85;;
21519;SDS011;10921;53.614;9.882;2024-02-21T05:32:33;54.05;;;46.40;;
21519;SDS011;10921;53.614;9.882;2024-02-21T05:34:59;55.83;;;45.53;;
21519;SDS011;10921;53.614;9.882;2024-02-21T05:37:26;52.05;;;44.72;;
21519;SDS011;10921;53.614;9.882;2024-02-21T05:39:53;49.53;;;44.20;;
21519;SDS011;10921;53.614;9.882;2024-02-21T05:42:19;49.72;;;44.30;;
21519;SDS011;10921;53.614;9.882;2024-02-21T05:44:46;52.05;;;44.00;;
21519;SDS011;10921;53.614;9.882;2024-02-21T05:47:12;52.72;;;43.17;;
21519;SDS011;10921;53.614;9.882;2024-02-21T05:49:41;48.40;;;41.95;;
21519;SDS011;10921;53.614;9.882;2024-02-21T05:52:08;47.53;;;40.33;;
21519;SDS011;10921;53.614;9.882;2024-02-21T05:54:37;45.70;;;40.35;;
21519;SDS011;10921;53.614;9.882;2024-02-21T05:57:04;43.90;;;39.28;;
21519;SDS011;10921;53.614;9.882;2024-02-21T05:59:34;44.80;;;40.07;;
21519;SDS011;10921;53.614;9.882;2024-02-21T06:02:03;42.40;;;37.92;;
21519;SDS011;10921;53.614;9.882;2024-02-21T06:04:30;41.95;;;37.90;;
21519;SDS011;10921;53.614;9.882;2024-02-21T06:06:57;40.72;;;36.50;;
21519;SDS011;10921;53.614;9.882;2024-02-21T06:09:24;39.55;;;35.50;;
21519;SDS011;10921;53.614;9.882;2024-02-21T06:11:51;36.75;;;33.25;;
21519;SDS011;10921;53.614;9.882;2024-02-21T06:14:17;37.78;;;33.83;;
21519;SDS011;10921;53.614;9.882;2024-02-21T06:16:44;37.20;;;33.80;;
21519;SDS011;10921;53.614;9.882;2024-02-21T06:19:10;34.60;;;31.45;;
21519;SDS011;10921;53.614;9.882;2024-02-21T06:21:37;34.20;;;31.30;;
21519;SDS011;10921;53.614;9.882;2024-02-21T06:24:04;34.13;;;30.77;;
21519;SDS011;10921;53.614;9.882;2024-02-21T06:26:30;31.67;;;28.80;;
21519;SDS011;10921;53.614;9.882;2024-02-21T06:28:57;30.98;;;27.95;;
21519;SDS011;10921;53.614;9.882;2024-02-21T06:31:26;30.48;;;27.48;;
21519;SDS011;10921;53.614;9.882;2024-02-21T06:33:53;30.23;;;27.65;;
21519;SDS011;10921;53.614;9.882;2024-02-21T06:36:20;27.55;;;25.25;;
21519;SDS011;10921;53.614;9.882;2024-02-21T06:38:46;28.17;;;25.98;;
21519;SDS011;10921;53.614;9.882;2024-02-21T06:41:16;29.13;;;26.73;;
21519;SDS011;10921;53.614;9.882;2024-02-21T06:43:45;29.75;;;27.25;;
21519;SDS011;10921;53.614;9.882;2024-02-21T06:46:28;31.70;;;28.65;;
21519;SDS011;10921;53.614;9.882;2024-02-21T06:48:56;31.42;;;28.42;;
21519;SDS011;10921;53.614;9.882;2024-02-21T06:51:24;31.25;;;28.55;;
21519;SDS011;10921;53.614;9.882;2024-02-21T06:53:54;33.50;;;30.63;;
21519;SDS011;10921;53.614;9.882;2024-02-21T06:56:24;34.50;;;31.35;;
21519;SDS011;10921;53.614;9.882;2024-02-21T06:58:55;32.40;;;29.70;;
21519;SDS011;10921;53.614;9.882;2024-02-21T07:01:23;32.30;;;29.60;;
21519;SDS011;10921;53.614;9.882;2024-02-21T07:03:50;32.17;;;29.38;;
21519;SDS011;10921;53.614;9.882;2024-02-21T07:06:16;31.98;;;29.20;;
21519;SDS011;10921;53.614;9.882;2024-02-21T07:08:43;31.48;;;28.70;;
21519;SDS011;10921;53.614;9.882;2024-02-21T07:11:10;32.67;;;29.88;;
21519;SDS011;10921;53.614;9.882;2024-02-21T07:13:37;32.65;;;29.67;;
21519;SDS011;10921;53.614;9.882;2024-02-21T07:16:04;32.47;;;29.60;;
21519;SDS011;10921;53.614;9.882;2024-02-21T07:18:30;33.13;;;30.17;;
21519;SDS011;10921;53.614;9.882;2024-02-21T07:20:57;33.13;;;30.02;;
21519;SDS011;10921;53.614;9.882;2024-02-21T07:23:24;32.70;;;29.83;;
21519;SDS011;10921;53.614;9.882;2024-02-21T07:25:51;33.60;;;30.80;;
21519;SDS011;10921;53.614;9.882;2024-02-21T07:28:18;33.53;;;30.58;;
21519;SDS011;10921;53.614;9.882;2024-02-21T07:30:44;33.75;;;30.73;;
21519;SDS011;10921;53.614;9.882;2024-02-21T07:33:11;31.67;;;28.88;;
21519;SDS011;10921;53.614;9.882;2024-02-21T07:35:37;31.23;;;28.45;;
21519;SDS011;10921;53.614;9.882;2024-02-21T07:38:04;30.27;;;27.48;;
21519;SDS011;10921;53.614;9.882;2024-02-21T07:40:31;28.23;;;25.75;;
21519;SDS011;10921;53.614;9.882;2024-02-21T07:42:58;27.25;;;24.88;;
21519;SDS011;10921;53.614;9.882;2024-02-21T07:45:24;31.55;;;27.17;;
21519;SDS011;10921;53.614;9.882;2024-02-21T07:47:51;29.58;;;26.63;;
21519;SDS011;10921;53.614;9.882;2024-02-21T07:50:18;28.35;;;25.85;;
21519;SDS011;10921;53.614;9.882;2024-02-21T07:52:44;29.08;;;26.48;;
21519;SDS011;10921;53.614;9.882;2024-02-21T07:55:11;29.55;;;26.63;;
21519;SDS011;10921;53.614;9.882;2024-02-21T07:57:38;31.38;;;28.02;;
21519;SDS011;10921;53.614;9.882;2024-02-21T08:00:05;28.65;;;25.73;;
21519;SDS011;10921;53.614;9.882;2024-02-21T08:02:32;33.65;;;26.65;;
21519;SDS011;10921;53.614;9.882;2024-02-21T08:04:58;36.10;;;27.20;;
21519;SDS011;10921;53.614;9.882;2024-02-21T08:07:25;45.55;;;28.10;;
21519;SDS011;10921;53.614;9.882;2024-02-21T08:09:55;39.10;;;28.55;;
21519;SDS011;10921;53.614;9.882;2024-02-21T08:12:22;43.67;;;28.00;;
21519;SDS011;10921;53.614;9.882;2024-02-21T08:14:48;48.35;;;28.45;;
21519;SDS011;10921;53.614;9.882;2024-02-21T08:17:15;51.85;;;28.80;;
21519;SDS011;10921;53.614;9.882;2024-02-21T08:19:41;47.85;;;28.65;;
21519;SDS011;10921;53.614;9.882;2024-02-21T08:22:08;47.15;;;28.45;;
21519;SDS011;10921;53.614;9.882;2024-02-21T08:24:34;54.20;;;29.95;;
21519;SDS011;10921;53.614;9.882;2024-02-21T08:27:01;57.65;;;31.13;;
21519;SDS011;10921;53.614;9.882;2024-02-21T08:29:28;51.53;;;30.17;;
21519;SDS011;10921;53.614;9.882;2024-02-21T08:31:55;51.85;;;31.20;;
21519;SDS011;10921;53.614;9.882;2024-02-21T08:34:21;49.72;;;30.60;;
21519;SDS011;10921;53.614;9.882;2024-02-21T08:36:48;53.00;;;31.52;;
21519;SDS011;10921;53.614;9.882;2024-02-21T08:39:14;59.05;;;31.63;;
21519;SDS011;10921;53.614;9.882;2024-02-21T08:41:43;55.05;;;31.02;;
21519;SDS011;10921;53.614;9.882;2024-02-21T08:44:22;59.95;;;30.40;;
21519;SDS011;10921;53.614;9.882;2024-02-21T08:46:54;53.28;;;30.13;;
21519;SDS011;10921;53.614;9.882;2024-02-21T08:49:21;43.70;;;29.70;;
21519;SDS011;10921;53.614;9.882;2024-02-21T08:51:48;55.50;;;31.17;;
21519;SDS011;10921;53.614;9.882;2024-02-21T08:54:15;50.67;;;31.08;;
21519;SDS011;10921;53.614;9.882;2024-02-21T08:56:43;51.35;;;31.02;;
21519;SDS011;10921;53.614;9.882;2024-02-21T08:59:10;49.58;;;31.90;;
21519;SDS011;10921;53.614;9.882;2024-02-21T09:01:37;58.35;;;31.60;;
21519;SDS011;10921;53.614;9.882;2024-02-21T09:04:04;57.40;;;32.72;;
21519;SDS011;10921;53.614;9.882;2024-02-21T09:06:31;57.38;;;32.67;;
21519;SDS011;10921;53.614;9.882;2024-02-21T09:09:00;51.47;;;31.80;;
21519;SDS011;10921;53.614;9.882;2024-02-21T09:11:27;54.63;;;31.58;;
21519;SDS011;10921;53.614;9.882;2024-02-21T09:13:54;43.42;;;30.73;;
21519;SDS011;10921;53.614;9.882;2024-02-21T09:16:21;52.28;;;30.95;;
21519;SDS011;10921;53.614;9.882;2024-02-21T09:18:49;55.90;;;30.95;;
21519;SDS011;10921;53.614;9.882;2024-02-21T09:21:15;62.58;;;31.58;;
21519;SDS011;10921;53.614;9.882;2024-02-21T09:23:42;55.97;;;31.63;;
21519;SDS011;10921;53.614;9.882;2024-02-21T09:26:08;46.90;;;30.17;;
21519;SDS011;10921;53.614;9.882;2024-02-21T09:28:40;47.72;;;30.02;;
21519;SDS011;10921;53.614;9.882;2024-02-21T09:31:06;49.65;;;30.48;;
21519;SDS011;10921;53.614;9.882;2024-02-21T09:33:33;48.20;;;30.27;;
21519;SDS011;10921;53.614;9.882;2024-02-21T09:36:00;42.88;;;29.45;;
21519;SDS011;10921;53.614;9.882;2024-02-21T09:38:27;51.88;;;30.58;;
21519;SDS011;10921;53.614;9.882;2024-02-21T09:40:58;49.75;;;32.13;;
21519;SDS011;10921;53.614;9.882;2024-02-21T09:43:27;43.45;;;30.50;;
21519;SDS011;10921;53.614;9.882;2024-02-21T09:45:56;47.83;;;31.05;;
21519;SDS011;10921;53.614;9.882;2024-02-21T09:51:07;39.75;;;30.40;;
21519;SDS011;10921;53.614;9.882;2024-02-21T09:53:35;40.45;;;30.00;;
21519;SDS011;10921;53.614;9.882;2024-02-21T09:56:05;33.55;;;29.98;;
21519;SDS011;10921;53.614;9.882;2024-02-21T09:58:37;37.90;;;29.73;;
21519;SDS011;10921;53.614;9.882;2024-02-21T10:01:04;33.20;;;29.70;;
21519;SDS011;10921;53.614;9.882;2024-02-21T10:03:50;32.85;;;29.33;;
21519;SDS011;10921;53.614;9.882;2024-02-21T10:06:17;33.72;;;29.95;;
21519;SDS011;10921;53.614;9.882;2024-02-21T10:08:44;33.88;;;30.27;;
21519;SDS011;10921;53.614;9.882;2024-02-21T10:11:24;33.15;;;29.75;;
21519;SDS011;10921;53.614;9.882;2024-02-21T10:14:02;35.38;;;31.35;;
21519;SDS011;10921;53.614;9.882;2024-02-21T10:16:33;35.25;;;31.73;;
21519;SDS011;10921;53.614;9.882;2024-02-21T10:19:00;35.17;;;31.88;;
21519;SDS011;10921;53.614;9.882;2024-02-21T10:21:27;37.38;;;33.50;;
21519;SDS011;10921;53.614;9.882;2024-02-21T10:23:53;37.63;;;34.03;;
21519;SDS011;10921;53.614;9.882;2024-02-21T10:26:20;38.55;;;34.70;;
21519;SDS011;10921;53.614;9.882;2024-02-21T10:28:49;42.85;;;38.03;;
21519;SDS011;10921;53.614;9.882;2024-02-21T10:31:22;42.53;;;38.53;;
21519;SDS011;10921;53.614;9.882;2024-02-21T10:34:01;47.38;;;41.35;;
21519;SDS011;10921;53.614;9.882;2024-02-21T10:36:31;45.90;;;40.85;;
21519;SDS011;10921;53.614;9.882;2024-02-21T10:38:58;56.65;;;44.58;;
21519;SDS011;10921;53.614;9.882;2024-02-21T10:41:25;56.35;;;47.78;;
21519;SDS011;10921;53.614;9.882;2024-02-21T10:43:53;57.03;;;48.83;;
21519;SDS011;10921;53.614;9.882;2024-02-21T10:46:22;62.30;;;49.58;;
21519;SDS011;10921;53.614;9.882;2024-02-21T10:49:01;64.45;;;53.45;;
21519;SDS011;10921;53.614;9.882;2024-02-21T10:51:31;69.88;;;54.70;;
21519;SDS011;10921;53.614;9.882;2024-02-21T10:56:49;75.13;;;58.65;;
21519;SDS011;10921;53.614;9.882;2024-02-21T10:59:16;81.32;;;59.97;;
21519;SDS011;10921;53.614;9.882;2024-02-21T11:01:44;85.55;;;59.58;;
21519;SDS011;10921;53.614;9.882;2024-02-21T11:04:11;85.90;;;61.28;;
21519;SDS011;10921;53.614;9.882;2024-02-21T11:06:41;80.10;;;61.38;;
21519;SDS011;10921;53.614;9.882;2024-02-21T11:09:11;90.03;;;62.70;;
21519;SDS011;10921;53.614;9.882;2024-02-21T11:11:39;87.13;;;64.15;;
21519;SDS011;10921;53.614;9.882;2024-02-21T11:14:08;91.32;;;63.42;;
21519;SDS011;10921;53.614;9.882;2024-02-21T11:16:43;90.40;;;64.72;;
21519;SDS011;10921;53.614;9.882;2024-02-21T11:19:20;88.75;;;62.58;;
21519;SDS011;10921;53.614;9.882;2024-02-21T11:21:49;87.10;;;63.03;;
21519;SDS011;10921;53.614;9.882;2024-02-21T11:24:29;89.78;;;63.15;;
21519;SDS011;10921;53.614;9.882;2024-02-21T11:27:12;77.03;;;60.80;;
21519;SDS011;10921;53.614;9.882;2024-02-21T11:29:43;82.10;;;60.25;;
21519;SDS011;10921;53.614;9.882;2024-02-21T11:32:11;83.43;;;59.72;;
21519;SDS011;10921;53.614;9.882;2024-02-21T11:34:41;76.53;;;56.90;;
21519;SDS011;10921;53.614;9.882;2024-02-21T11:37:19;77.30;;;57.17;;
21519;SDS011;10921;53.614;9.882;2024-02-21T11:39:45;73.47;;;56.53;;
21519;SDS011;10921;53.614;9.882;2024-02-21T11:42:12;72.13;;;54.85;;
21519;SDS011;10921;53.614;9.882;2024-02-21T11:44:39;72.25;;;53.53;;
21519;SDS011;10921;53.614;9.882;2024-02-21T11:47:08;64.47;;;51.22;;
21519;SDS011;10921;53.614;9.882;2024-02-21T11:49:38;68.80;;;51.20;;
21519;SDS011;10921;53.614;9.882;2024-02-21T11:52:11;67.68;;;49.78;;
21519;SDS011;10921;53.614;9.882;2024-02-21T11:54:41;53.47;;;46.25;;
21519;SDS011;10921;53.614;9.882;2024-02-21T11:57:08;61.05;;;44.33;;
21519;SDS011;10921;53.614;9.882;2024-02-21T11:59:35;56.47;;;44.03;;
21519;SDS011;10921;53.614;9.882;2024-02-21T12:02:01;50.95;;;43.33;;
21519;SDS011;10921;53.614;9.882;2024-02-21T12:04:30;54.38;;;44.33;;
21519;SDS011;10921;53.614;9.882;2024-02-21T12:07:00;56.67;;;43.47;;
21519;SDS011;10921;53.614;9.882;2024-02-21T12:09:30;61.35;;;43.45;;
21519;SDS011;10921;53.614;9.882;2024-02-21T12:12:00;57.30;;;42.42;;
21519;SDS011;10921;53.614;9.882;2024-02-21T12:14:29;59.60;;;42.08;;
21519;SDS011;10921;53.614;9.882;2024-02-21T12:16:57;52.90;;;41.33;;
21519;SDS011;10921;53.614;9.882;2024-02-21T12:19:25;57.22;;;41.75;;
21519;SDS011;10921;53.614;9.882;2024-02-21T12:21:53;53.38;;;40.05;;
21519;SDS011;10921;53.614;9.882;2024-02-21T12:24:22;61.33;;;41.17;;
21519;SDS011;10921;53.614;9.882;2024-02-21T12:26:50;53.20;;;40.35;;
21519;SDS011;10921;53.614;9.882;2024-02-21T12:29:21;56.15;;;41.08;;
21519;SDS011;10921;53.614;9.882;2024-02-21T12:31:51;63.28;;;40.92;;
21519;SDS011;10921;53.614;9.882;2024-02-21T12:34:18;55.00;;;39.15;;
21519;SDS011;10921;53.614;9.882;2024-02-21T12:36:59;54.40;;;40.33;;
21519;SDS011;10921;53.614;9.882;2024-02-21T12:39:27;52.83;;;39.15;;
21519;SDS011;10921;53.614;9.882;2024-02-21T12:41:55;54.63;;;40.83;;
21519;SDS011;10921;53.614;9.882;2024-02-21T12:44:22;56.72;;;40.83;;
21519;SDS011;10921;53.614;9.882;2024-02-21T12:46:50;53.80;;;39.83;;
21519;SDS011;10921;53.614;9.882;2024-02-21T12:49:20;52.13;;;40.42;;
21519;SDS011;10921;53.614;9.882;2024-02-21T12:51:47;61.25;;;39.92;;
21519;SDS011;10921;53.614;9.882;2024-02-21T12:54:14;48.67;;;40.70;;
21519;SDS011;10921;53.614;9.882;2024-02-21T12:56:41;55.17;;;41.05;;
21519;SDS011;10921;53.614;9.882;2024-02-21T12:59:07;59.53;;;41.38;;
21519;SDS011;10921;53.614;9.882;2024-02-21T13:01:36;54.28;;;39.35;;
21519;SDS011;10921;53.614;9.882;2024-02-21T13:04:04;62.72;;;40.13;;
21519;SDS011;10921;53.614;9.882;2024-02-21T13:06:30;56.10;;;39.70;;
21519;SDS011;10921;53.614;9.882;2024-02-21T13:08:57;54.90;;;39.40;;
21519;SDS011;10921;53.614;9.882;2024-02-21T13:11:25;63.28;;;38.17;;
21519;SDS011;10921;53.614;9.882;2024-02-21T13:13:57;52.95;;;37.92;;
21519;SDS011;10921;53.614;9.882;2024-02-21T13:16:24;50.85;;;34.47;;
21519;SDS011;10921;53.614;9.882;2024-02-21T13:18:52;54.22;;;35.97;;
21519;SDS011;10921;53.614;9.882;2024-02-21T13:21:19;57.10;;;36.05;;
21519;SDS011;10921;53.614;9.882;2024-02-21T13:23:46;60.72;;;37.33;;
21519;SDS011;10921;53.614;9.882;2024-02-21T13:26:13;58.60;;;37.38;;
21519;SDS011;10921;53.614;9.882;2024-02-21T13:28:40;56.38;;;35.15;;
21519;SDS011;10921;53.614;9.882;2024-02-21T13:31:07;52.38;;;33.83;;
21519;SDS011;10921;53.614;9.882;2024-02-21T13:33:33;49.45;;;34.10;;
21519;SDS011;10921;53.614;9.882;2024-02-21T13:36:00;51.25;;;32.30;;
21519;SDS011;10921;53.614;9.882;2024-02-21T13:38:28;55.03;;;33.95;;
21519;SDS011;10921;53.614;9.882;2024-02-21T13:40:55;48.83;;;32.22;;
21519;SDS011;10921;53.614;9.882;2024-02-21T13:43:21;49.40;;;30.98;;
21519;SDS011;10921;53.614;9.882;2024-02-21T13:45:58;45.58;;;30.77;;
21519;SDS011;10921;53.614;9.882;2024-02-21T13:48:26;58.13;;;32.78;;
21519;SDS011;10921;53.614;9.882;2024-02-21T13:50:56;57.78;;;33.10;;
21519;SDS011;10921;53.614;9.882;2024-02-21T13:53:23;47.95;;;31.58;;
21519;SDS011;10921;53.614;9.882;2024-02-21T13:55:49;53.60;;;30.90;;
21519;SDS011;10921;53.614;9.882;2024-02-21T13:58:16;51.65;;;30.63;;
21519;SDS011;10921;53.614;9.882;2024-02-21T14:00:43;47.53;;;30.60;;
21519;SDS011;10921;53.614;9.882;2024-02-21T14:03:10;57.03;;;32.28;;
21519;SDS011;10921;53.614;9.882;2024-02-21T14:05:37;42.00;;;30.85;;
21519;SDS011;10921;53.614;9.882;2024-02-21T14:10:33;50.05;;;30.38;;
21519;SDS011;10921;53.614;9.882;2024-02-21T14:13:00;49.75;;;30.38;;
21519;SDS011;10921;53.614;9.882;2024-02-21T14:15:27;43.58;;;29.80;;
21519;SDS011;10921;53.614;9.882;2024-02-21T14:17:53;46.38;;;29.17;;
21519;SDS011;10921;53.614;9.882;2024-02-21T14:20:21;51.35;;;29.65;;
21519;SDS011;10921;53.614;9.882;2024-02-21T14:22:48;45.75;;;27.83;;
21519;SDS011;10921;53.614;9.882;2024-02-21T14:25:14;49.50;;;29.25;;
21519;SDS011;10921;53.614;9.882;2024-02-21T14:27:42;48.95;;;28.42;;
21519;SDS011;10921;53.614;9.882;2024-02-21T14:30:10;41.47;;;26.38;;
21519;SDS011;10921;53.614;9.882;2024-02-21T14:32:37;44.70;;;26.75;;